createdAt,value
2023-04-27T00:01:14.167Z,6.40
2023-04-27T00:03:41.984Z,6.30
2023-04-27T00:06:09.861Z,6.30
2023-04-27T00:08:36.753Z,6.30
2023-04-27T00:11:03.657Z,6.20
2023-04-27T00:13:30.572Z,6.20
2023-04-27T00:15:57.414Z,6.30
2023-04-27T00:18:24.268Z,6.20
2023-04-27T00:20:51.124Z,6.20
2023-04-27T00:23:17.963Z,6.20
2023-04-27T00:25:44.690Z,6.20
2023-04-27T00:28:11.417Z,6.20
2023-04-27T00:30:38.150Z,6.20
2023-04-27T00:33:04.922Z,6.20
2023-04-27T00:35:33.429Z,6.20
2023-04-27T00:38:00.175Z,6.10
2023-04-27T00:40:26.969Z,6.10
2023-04-27T00:42:53.633Z,6.10
2023-04-27T00:45:20.617Z,6.10
2023-04-27T00:47:47.455Z,6.10
2023-04-27T00:50:14.979Z,6.10
2023-04-27T00:52:41.905Z,6.10
2023-04-27T00:55:09.666Z,6.10
2023-04-27T00:57:36.422Z,6.10
2023-04-27T01:00:06.831Z,6.00
2023-04-27T01:02:34.722Z,6.00
2023-04-27T01:05:03.048Z,6.00
2023-04-27T01:07:29.995Z,6.00
2023-04-27T01:09:56.679Z,6.00
2023-04-27T01:12:23.416Z,5.90
2023-04-27T01:14:50.158Z,5.90
2023-04-27T01:17:18.339Z,5.80
2023-04-27T01:19:45.214Z,5.80
2023-04-27T01:22:12.259Z,5.80
2023-04-27T01:24:39.013Z,5.80
2023-04-27T01:27:05.801Z,5.80
2023-04-27T01:29:32.730Z,5.70
2023-04-27T01:31:59.523Z,5.70
2023-04-27T01:34:26.340Z,5.70
2023-04-27T01:36:52.967Z,5.70
2023-04-27T01:39:19.835Z,5.60
2023-04-27T01:41:46.573Z,5.60
2023-04-27T01:44:13.286Z,5.60
2023-04-27T01:46:39.992Z,5.60
2023-04-27T01:49:06.838Z,5.60
2023-04-27T01:51:33.595Z,5.60
2023-04-27T01:54:00.277Z,5.60
2023-04-27T01:56:27.236Z,5.60
2023-04-27T01:58:54.069Z,5.60
2023-04-27T02:01:20.899Z,5.60
2023-04-27T02:03:47.871Z,5.50
2023-04-27T02:06:14.709Z,5.50
2023-04-27T02:08:41.434Z,5.50
2023-04-27T02:11:08.125Z,5.50
2023-04-27T02:13:34.762Z,5.60
2023-04-27T02:16:03.472Z,5.60
2023-04-27T02:18:30.483Z,5.60
2023-04-27T02:20:57.369Z,5.60
2023-04-27T02:23:24.271Z,5.60
2023-04-27T02:25:51.578Z,5.60
2023-04-27T02:28:18.303Z,5.60
2023-04-27T02:30:45.337Z,5.60
2023-04-27T02:33:11.966Z,5.50
2023-04-27T02:35:38.606Z,5.50
2023-04-27T02:38:05.468Z,5.50
2023-04-27T02:40:32.250Z,5.60
2023-04-27T02:42:58.882Z,5.50
2023-04-27T02:45:25.673Z,5.50
2023-04-27T02:47:52.421Z,5.50
2023-04-27T02:50:19.252Z,5.50
2023-04-27T02:52:46.105Z,5.50
2023-04-27T02:55:13.235Z,5.50
2023-04-27T02:57:40.607Z,5.50
2023-04-27T03:00:09.438Z,5.50
2023-04-27T03:02:36.359Z,5.50
2023-04-27T03:05:03.787Z,5.50
2023-04-27T03:07:31.631Z,5.50
2023-04-27T03:09:58.434Z,5.50
2023-04-27T03:12:25.296Z,5.50
2023-04-27T03:14:52.015Z,5.50
2023-04-27T03:17:18.828Z,5.40
2023-04-27T03:19:48.469Z,5.40
2023-04-27T03:22:15.239Z,5.40
2023-04-27T03:24:42.466Z,5.30
2023-04-27T03:27:09.193Z,5.30
2023-04-27T03:29:35.951Z,5.30
2023-04-27T03:32:04.555Z,5.30
2023-04-27T03:34:31.718Z,5.30
2023-04-27T03:36:58.595Z,5.20
2023-04-27T03:39:25.258Z,5.30
2023-04-27T03:41:51.991Z,5.30
2023-04-27T03:44:18.778Z,5.30
2023-04-27T03:46:45.488Z,5.20
2023-04-27T03:49:12.284Z,5.20
2023-04-27T03:51:42.257Z,5.20
2023-04-27T03:54:10.106Z,5.20
2023-04-27T03:56:37.346Z,5.20
2023-04-27T03:59:05.125Z,5.20
2023-04-27T04:01:32.177Z,5.20
2023-04-27T04:03:59.100Z,5.20
2023-04-27T04:06:26.221Z,5.10
2023-04-27T04:08:52.961Z,5.10
2023-04-27T04:11:19.662Z,5.20
2023-04-27T04:13:47.495Z,5.20
2023-04-27T04:16:14.272Z,5.20
2023-04-27T04:18:41.069Z,5.20
2023-04-27T04:21:10.791Z,5.20
2023-04-27T04:23:38.163Z,5.20
2023-04-27T04:26:05.730Z,5.20
2023-04-27T04:28:32.656Z,5.20
2023-04-27T04:31:01.458Z,5.20
2023-04-27T04:33:28.253Z,5.20
2023-04-27T04:35:55.038Z,5.20
2023-04-27T04:38:22.265Z,5.30
2023-04-27T04:40:50.020Z,5.30
2023-04-27T04:43:17.023Z,5.30
2023-04-27T04:45:43.969Z,5.30
2023-04-27T04:48:11.510Z,5.30
2023-04-27T04:50:39.569Z,5.30
2023-04-27T04:53:06.612Z,5.40
2023-04-27T04:55:33.448Z,5.40
2023-04-27T04:58:00.662Z,5.40
2023-04-27T05:00:27.536Z,5.50
2023-04-27T05:02:54.343Z,5.50
2023-04-27T05:05:21.500Z,5.60
2023-04-27T05:07:48.636Z,5.60
2023-04-27T05:10:15.270Z,5.70
2023-04-27T05:12:44.495Z,5.70
2023-04-27T05:15:11.758Z,5.80
2023-04-27T05:17:38.571Z,5.80
2023-04-27T05:20:06.620Z,5.80
2023-04-27T05:22:33.335Z,5.90
2023-04-27T05:25:02.847Z,6.00
2023-04-27T05:27:30.148Z,6.00
2023-04-27T05:29:56.896Z,6.10
2023-04-27T05:32:23.696Z,6.10
2023-04-27T05:34:51.396Z,6.20
2023-04-27T05:37:18.087Z,6.30
2023-04-27T05:39:44.821Z,6.40
2023-04-27T05:42:11.502Z,6.40
2023-04-27T05:44:38.219Z,6.50
2023-04-27T05:47:05.001Z,6.50
2023-04-27T05:49:31.786Z,6.60
2023-04-27T05:51:59.197Z,6.60
2023-04-27T05:54:27.573Z,6.70
2023-04-27T05:56:54.424Z,6.70
2023-04-27T05:59:21.898Z,6.70
2023-04-27T06:01:49.044Z,6.80
2023-04-27T06:04:16.267Z,6.90
2023-04-27T06:06:44.810Z,6.90
2023-04-27T06:09:11.883Z,7.10
2023-04-27T06:11:38.832Z,7.10
2023-04-27T06:16:46.229Z,7.30
2023-04-27T06:19:13.056Z,7.30
2023-04-27T06:21:40.066Z,7.40
2023-04-27T06:26:47.861Z,7.50
2023-04-27T06:29:14.863Z,7.60
2023-04-27T06:31:41.832Z,7.70
2023-04-27T06:34:08.689Z,7.80
2023-04-27T06:36:35.537Z,7.80
2023-04-27T06:39:02.353Z,7.90
2023-04-27T06:41:29.066Z,7.90
2023-04-27T06:43:57.448Z,8.10
2023-04-27T06:46:25.448Z,8.20
2023-04-27T06:48:52.818Z,8.20
2023-04-27T06:51:19.495Z,8.30
2023-04-27T06:53:46.188Z,8.40
2023-04-27T06:56:12.987Z,8.50
2023-04-27T06:58:39.715Z,8.50
2023-04-27T07:01:06.997Z,8.70
2023-04-27T07:03:36.712Z,8.70
2023-04-27T07:06:03.741Z,8.80
2023-04-27T07:08:30.541Z,8.90
2023-04-27T07:10:57.366Z,9.00
2023-04-27T07:13:24.118Z,9.10
2023-04-27T07:15:58.130Z,9.30
2023-04-27T07:18:26.029Z,9.40
2023-04-27T07:20:52.743Z,9.50
2023-04-27T07:23:19.460Z,9.60
2023-04-27T07:25:46.480Z,9.70
2023-04-27T07:28:13.322Z,9.80
2023-04-27T07:30:40.715Z,9.90
2023-04-27T07:33:07.815Z,10.00
2023-04-27T07:35:34.863Z,10.10
2023-04-27T07:38:02.918Z,10.20
2023-04-27T07:40:30.880Z,10.40
2023-04-27T07:42:58.472Z,10.40
2023-04-27T07:45:32.609Z,10.50
2023-04-27T07:48:00.308Z,10.50
2023-04-27T07:50:31.353Z,10.60
2023-04-27T07:52:58.332Z,10.70
2023-04-27T07:55:26.354Z,10.80
2023-04-27T07:57:54.179Z,10.90
2023-04-27T08:00:22.346Z,11.00
2023-04-27T08:02:51.229Z,11.00
2023-04-27T08:05:18.966Z,11.10
2023-04-27T08:07:46.073Z,11.30
2023-04-27T08:10:13.593Z,11.40
2023-04-27T08:12:40.712Z,11.50
2023-04-27T08:15:08.069Z,11.60
2023-04-27T08:17:36.670Z,11.70
2023-04-27T08:20:04.067Z,11.80
2023-04-27T08:22:31.579Z,11.90
2023-04-27T08:24:58.319Z,12.00
2023-04-27T08:27:25.089Z,12.20
2023-04-27T08:29:51.911Z,12.40
2023-04-27T08:32:18.611Z,12.60
2023-04-27T08:34:46.667Z,12.70
2023-04-27T08:37:13.443Z,12.90
2023-04-27T08:39:40.918Z,13.00
2023-04-27T08:42:14.549Z,13.20
2023-04-27T08:44:42.588Z,13.50
2023-04-27T08:47:10.258Z,13.70
2023-04-27T08:49:41.862Z,13.80
2023-04-27T08:52:16.438Z,13.90
2023-04-27T08:54:43.683Z,14.20
2023-04-27T08:57:14.894Z,14.50
2023-04-27T08:59:41.733Z,14.60
2023-04-27T09:02:20.337Z,14.80
2023-04-27T09:04:47.487Z,15.00
2023-04-27T09:07:16.867Z,15.10
2023-04-27T09:09:44.472Z,15.10
2023-04-27T09:12:22.099Z,15.20
2023-04-27T09:15:06.497Z,15.40
2023-04-27T09:17:34.482Z,15.50
2023-04-27T09:20:10.266Z,15.60
2023-04-27T09:22:47.572Z,15.60
2023-04-27T09:25:24.394Z,15.80
2023-04-27T09:27:51.593Z,15.80
2023-04-27T09:30:18.990Z,15.80
2023-04-27T09:32:54.351Z,15.80
2023-04-27T09:35:24.166Z,15.80
2023-04-27T09:37:54.707Z,15.70
2023-04-27T09:40:26.662Z,15.60
2023-04-27T09:42:56.260Z,15.60
2023-04-27T09:45:26.519Z,15.70
2023-04-27T09:47:53.814Z,15.70
2023-04-27T09:50:22.094Z,15.60
2023-04-27T09:52:49.370Z,15.70
2023-04-27T09:55:19.899Z,15.90
2023-04-27T09:58:06.456Z,16.00
2023-04-27T10:01:05.910Z,16.30
2023-04-27T10:03:39.016Z,16.30
2023-04-27T10:06:52.875Z,16.30
2023-04-27T10:09:26.052Z,16.20
2023-04-27T10:11:54.576Z,16.00
2023-04-27T10:14:23.860Z,15.90
2023-04-27T10:16:58.661Z,15.80
2023-04-27T10:19:26.029Z,15.70
2023-04-27T10:21:53.671Z,15.60
2023-04-27T10:24:31.112Z,15.60
2023-04-27T10:27:05.596Z,15.60
2023-04-27T10:29:43.509Z,15.70
2023-04-27T10:32:23.385Z,16.00
2023-04-27T10:34:51.427Z,16.40
2023-04-27T10:37:25.458Z,16.60
2023-04-27T10:42:30.814Z,17.10
2023-04-27T10:44:58.633Z,17.10
2023-04-27T10:47:37.214Z,17.10
2023-04-27T10:52:46.903Z,16.90
2023-04-27T10:55:21.698Z,16.90
2023-04-27T10:57:53.458Z,17.00
2023-04-27T11:00:46.445Z,17.00
2023-04-27T11:03:24.265Z,17.20
2023-04-27T11:06:04.455Z,17.10
2023-04-27T11:08:34.213Z,17.10
2023-04-27T11:11:02.025Z,17.00
2023-04-27T11:13:28.955Z,17.00
2023-04-27T11:15:57.993Z,17.00
2023-04-27T11:18:27.357Z,17.00
2023-04-27T11:21:05.514Z,17.00
2023-04-27T11:23:38.905Z,17.20
2023-04-27T11:26:26.841Z,17.40
2023-04-27T11:29:13.864Z,17.60
2023-04-27T11:31:47.501Z,17.70
2023-04-27T11:34:22.863Z,17.90
2023-04-27T11:37:14.290Z,18.00
2023-04-27T11:39:45.957Z,18.30
2023-04-27T11:42:22.060Z,18.50
2023-04-27T11:44:52.897Z,18.70
2023-04-27T11:47:19.761Z,19.00
2023-04-27T11:49:48.489Z,19.10
2023-04-27T11:52:16.252Z,19.10
2023-04-27T11:54:50.889Z,19.00
2023-04-27T11:57:17.727Z,18.70
2023-04-27T11:59:44.522Z,18.60
2023-04-27T12:02:11.319Z,18.60
2023-04-27T12:04:38.262Z,18.50
2023-04-27T12:07:05.135Z,18.40
2023-04-27T12:09:31.883Z,18.30
2023-04-27T12:11:58.614Z,18.00
2023-04-27T12:14:25.863Z,17.90
2023-04-27T12:16:52.917Z,18.00
2023-04-27T12:19:19.707Z,18.10
2023-04-27T12:21:46.759Z,18.40
2023-04-27T12:24:13.673Z,18.60
2023-04-27T12:26:40.488Z,19.10
2023-04-27T12:29:07.672Z,19.60
2023-04-27T12:31:34.593Z,20.00
2023-04-27T12:34:01.700Z,20.10
2023-04-27T12:36:28.808Z,20.10
2023-04-27T12:38:59.535Z,20.00
2023-04-27T12:41:26.595Z,20.00
2023-04-27T12:43:53.386Z,20.10
2023-04-27T12:46:20.219Z,20.10
2023-04-27T12:48:46.987Z,20.10
2023-04-27T12:51:14.496Z,20.20
2023-04-27T12:53:41.330Z,20.50
2023-04-27T12:56:08.312Z,21.00
2023-04-27T12:58:35.119Z,21.50
2023-04-27T13:01:02.006Z,21.90
2023-04-27T13:03:28.844Z,21.90
2023-04-27T13:05:55.897Z,21.70
2023-04-27T13:08:22.584Z,21.50
2023-04-27T13:10:49.435Z,21.20
2023-04-27T13:13:16.189Z,20.80
2023-04-27T13:15:43.146Z,20.70
2023-04-27T13:18:10.439Z,21.00
2023-04-27T13:20:38.380Z,21.10
2023-04-27T13:23:05.950Z,21.20
2023-04-27T13:25:32.740Z,21.20
2023-04-27T13:27:59.468Z,21.50
2023-04-27T13:30:26.173Z,21.70
2023-04-27T13:32:53.328Z,21.90
2023-04-27T13:35:20.992Z,22.10
2023-04-27T13:37:48.101Z,22.30
2023-04-27T13:40:15.050Z,22.50
2023-04-27T13:42:41.780Z,22.60
2023-04-27T13:45:09.216Z,22.70
2023-04-27T13:47:38.786Z,23.20
2023-04-27T13:50:07.519Z,23.70
2023-04-27T13:52:38.691Z,24.10
2023-04-27T13:55:07.254Z,24.40
2023-04-27T13:57:34.080Z,24.40
2023-04-27T14:00:01.075Z,24.30
2023-04-27T14:02:33.609Z,24.20
2023-04-27T14:05:00.800Z,24.30
2023-04-27T14:07:27.743Z,24.50
2023-04-27T14:09:54.581Z,24.90
2023-04-27T14:12:21.360Z,25.00
2023-04-27T14:14:48.145Z,25.00
2023-04-27T14:17:15.026Z,24.90
2023-04-27T14:19:42.983Z,25.10
2023-04-27T14:22:10.135Z,25.20
2023-04-27T14:24:37.020Z,25.40
2023-04-27T14:27:03.879Z,25.60
2023-04-27T14:29:30.706Z,25.70
2023-04-27T14:31:58.012Z,25.70
2023-04-27T14:34:24.728Z,25.70
2023-04-27T14:36:51.806Z,25.80
2023-04-27T14:39:18.582Z,25.90
2023-04-27T14:41:45.528Z,26.00
2023-04-27T14:44:12.974Z,26.10
2023-04-27T14:46:39.743Z,26.20
2023-04-27T14:49:06.560Z,26.20
2023-04-27T14:51:33.576Z,26.20
2023-04-27T14:54:00.293Z,26.10
2023-04-27T14:56:27.117Z,26.00
2023-04-27T14:58:55.333Z,25.70
2023-04-27T15:01:22.194Z,25.40
2023-04-27T15:03:50.960Z,25.20
2023-04-27T15:06:17.870Z,25.10
2023-04-27T15:08:44.955Z,25.10
2023-04-27T15:11:11.837Z,25.00
2023-04-27T15:13:38.674Z,25.00
2023-04-27T15:16:07.277Z,24.90
2023-04-27T15:18:35.407Z,24.90
2023-04-27T15:21:02.135Z,25.00
2023-04-27T15:23:28.940Z,24.90
2023-04-27T15:25:58.093Z,24.70
2023-04-27T15:28:25.244Z,24.30
2023-04-27T15:30:52.117Z,24.30
2023-04-27T15:33:19.111Z,24.20
2023-04-27T15:35:45.913Z,24.00
2023-04-27T15:38:14.620Z,23.90
2023-04-27T15:40:41.659Z,23.80
2023-04-27T15:43:08.423Z,23.80
2023-04-27T15:45:35.256Z,23.70
2023-04-27T15:48:02.197Z,23.70
2023-04-27T15:50:31.581Z,23.70
2023-04-27T15:52:58.486Z,23.70
2023-04-27T15:55:25.349Z,23.50
2023-04-27T15:57:53.491Z,23.40
2023-04-27T16:00:22.678Z,23.40
2023-04-27T16:02:49.769Z,23.40
2023-04-27T16:05:17.129Z,23.40
2023-04-27T16:07:44.766Z,23.30
2023-04-27T16:10:12.995Z,23.10
2023-04-27T16:12:39.871Z,23.10
2023-04-27T16:15:10.023Z,23.00
2023-04-27T16:17:38.073Z,22.80
2023-04-27T16:20:08.096Z,22.70
2023-04-27T16:22:35.880Z,22.60
2023-04-27T16:25:03.839Z,22.50
2023-04-27T16:27:30.821Z,22.50
2023-04-27T16:29:57.542Z,22.40
2023-04-27T16:32:24.469Z,22.30
2023-04-27T16:34:51.339Z,22.20
2023-04-27T16:37:18.216Z,22.10
2023-04-27T16:39:45.427Z,21.90
2023-04-27T16:42:16.388Z,21.80
2023-04-27T16:44:43.271Z,21.70
2023-04-27T16:47:10.035Z,21.60
2023-04-27T16:49:37.926Z,21.50
2023-04-27T16:52:05.209Z,21.40
2023-04-27T16:54:31.972Z,21.20
2023-04-27T16:56:58.740Z,21.00
2023-04-27T16:59:25.524Z,20.90
2023-04-27T17:01:52.424Z,20.80
2023-04-27T17:04:19.466Z,20.70
2023-04-27T17:06:48.326Z,20.50
2023-04-27T17:09:15.531Z,20.40
2023-04-27T17:11:42.608Z,20.30
2023-04-27T17:14:09.430Z,20.10
2023-04-27T17:16:36.184Z,20.00
2023-04-27T17:19:03.013Z,19.90
2023-04-27T17:21:29.737Z,19.70
2023-04-27T17:26:38.279Z,19.50
2023-04-27T17:29:05.839Z,19.30
2023-04-27T17:31:32.723Z,19.20
2023-04-27T17:33:59.668Z,19.10
2023-04-27T17:36:26.784Z,19.00
2023-04-27T17:38:54.139Z,18.90
2023-04-27T17:41:21.086Z,18.80
2023-04-27T17:43:48.959Z,18.50
2023-04-27T17:46:16.222Z,18.40
2023-04-27T17:48:44.200Z,18.20
2023-04-27T17:51:11.048Z,18.00
2023-04-27T17:53:37.860Z,17.80
2023-04-27T17:56:05.440Z,17.60
2023-04-27T17:58:32.549Z,17.40
2023-04-27T18:00:59.391Z,17.20
2023-04-27T18:03:27.409Z,17.10
2023-04-27T18:05:54.457Z,16.90
2023-04-27T18:08:21.119Z,16.70
2023-04-27T18:10:47.966Z,16.60
2023-04-27T18:13:14.780Z,16.50
2023-04-27T18:15:41.505Z,16.40
2023-04-27T18:18:08.397Z,16.20
2023-04-27T18:20:35.189Z,16.10
2023-04-27T18:23:02.628Z,15.90
2023-04-27T18:25:30.272Z,15.80
2023-04-27T18:27:57.058Z,15.70
2023-04-27T18:30:24.914Z,15.60
2023-04-27T18:32:51.772Z,15.50
2023-04-27T18:35:18.735Z,15.40
2023-04-27T18:37:48.468Z,15.20
2023-04-27T18:40:19.146Z,15.20
2023-04-27T18:42:46.111Z,15.00
2023-04-27T18:45:13.150Z,15.00
2023-04-27T18:47:40.171Z,14.80
2023-04-27T18:50:07.596Z,14.70
2023-04-27T18:52:35.147Z,14.50
2023-04-27T18:55:02.065Z,14.50
2023-04-27T18:57:28.858Z,14.40
2023-04-27T18:59:56.224Z,14.30
2023-04-27T19:02:25.294Z,14.10
2023-04-27T19:04:56.998Z,14.10
2023-04-27T19:07:28.751Z,14.00
2023-04-27T19:09:55.585Z,13.90
2023-04-27T19:12:23.501Z,13.80
2023-04-27T19:14:51.653Z,13.80
2023-04-27T19:17:18.656Z,13.70
2023-04-27T19:19:48.527Z,13.60
2023-04-27T19:22:15.441Z,13.50
2023-04-27T19:24:42.401Z,13.50
2023-04-27T19:27:10.943Z,13.40
2023-04-27T19:29:50.881Z,13.40
2023-04-27T19:32:18.128Z,13.30
2023-04-27T19:34:45.130Z,13.20
2023-04-27T19:37:12.194Z,13.10
2023-04-27T19:39:39.502Z,13.00
2023-04-27T19:42:06.616Z,12.90
2023-04-27T19:44:33.461Z,12.90
2023-04-27T19:47:00.248Z,13.00
2023-04-27T19:49:32.835Z,13.10
2023-04-27T19:52:03.028Z,13.10
2023-04-27T19:54:29.924Z,13.10
2023-04-27T19:56:57.001Z,13.10
2023-04-27T19:59:23.875Z,13.10
2023-04-27T20:01:50.752Z,13.00
2023-04-27T20:04:18.376Z,12.90
2023-04-27T20:06:46.373Z,12.90
2023-04-27T20:09:13.348Z,12.80
2023-04-27T20:11:40.276Z,12.70
2023-04-27T20:14:07.086Z,12.60
2023-04-27T20:16:34.117Z,12.40
2023-04-27T20:19:01.004Z,12.30
2023-04-27T20:21:28.407Z,12.30
2023-04-27T20:23:55.115Z,12.20
2023-04-27T20:26:22.693Z,12.20
2023-04-27T20:28:49.633Z,12.30
2023-04-27T20:31:16.600Z,12.30
2023-04-27T20:33:43.493Z,12.40
2023-04-27T20:36:17.062Z,12.30
2023-04-27T20:38:45.159Z,12.10
2023-04-27T20:41:15.159Z,12.00
2023-04-27T20:43:41.893Z,11.80
2023-04-27T20:46:11.043Z,11.70
2023-04-27T20:48:38.300Z,11.70
2023-04-27T20:51:05.057Z,11.60
2023-04-27T20:53:31.787Z,11.70
2023-04-27T20:55:58.487Z,11.60
2023-04-27T20:58:25.818Z,11.60
2023-04-27T21:00:52.534Z,11.50
2023-04-27T21:03:19.720Z,11.50
2023-04-27T21:05:47.349Z,11.40
2023-04-27T21:08:14.052Z,11.40
2023-04-27T21:10:41.155Z,11.40
2023-04-27T21:13:07.896Z,11.50
2023-04-27T21:15:34.666Z,11.60
2023-04-27T21:18:01.691Z,11.60
2023-04-27T21:20:28.512Z,11.60
2023-04-27T21:22:55.542Z,11.50
2023-04-27T21:25:23.895Z,11.50
2023-04-27T21:27:50.787Z,11.40
2023-04-27T21:30:17.653Z,11.50
2023-04-27T21:32:44.503Z,11.50
2023-04-27T21:35:11.308Z,11.50
2023-04-27T21:37:38.111Z,11.50
2023-04-27T21:40:06.126Z,11.50
2023-04-27T21:42:32.876Z,11.60
2023-04-27T21:44:59.673Z,11.60
2023-04-27T21:47:26.632Z,11.60
2023-04-27T21:49:53.560Z,11.60
2023-04-27T21:52:21.633Z,11.60
2023-04-27T21:54:48.791Z,11.60
2023-04-27T21:57:16.936Z,11.50
2023-04-27T21:59:44.986Z,11.40
2023-04-27T22:02:11.757Z,11.40
2023-04-27T22:04:39.636Z,11.40
2023-04-27T22:07:08.192Z,11.20
2023-04-27T22:09:35.851Z,11.20
2023-04-27T22:12:03.378Z,11.10
2023-04-27T22:14:31.342Z,11.00
2023-04-27T22:16:58.571Z,10.90
2023-04-27T22:19:25.523Z,10.90
2023-04-27T22:21:52.318Z,10.90
2023-04-27T22:24:19.299Z,11.00
2023-04-27T22:26:48.318Z,10.90
2023-04-27T22:29:15.921Z,10.80
2023-04-27T22:31:43.656Z,10.70
2023-04-27T22:34:12.675Z,10.60
2023-04-27T22:36:39.673Z,10.50
2023-04-27T22:39:07.257Z,10.40
2023-04-27T22:41:34.229Z,10.30
2023-04-27T22:44:01.048Z,10.20
2023-04-27T22:46:27.882Z,10.10
2023-04-27T22:48:54.756Z,10.00
2023-04-27T22:51:21.864Z,9.90
2023-04-27T22:53:49.117Z,9.90
2023-04-27T22:56:15.921Z,9.90
2023-04-27T22:58:42.583Z,9.80
2023-04-27T23:01:09.361Z,9.70
2023-04-27T23:03:36.478Z,9.70
2023-04-27T23:06:03.355Z,9.70
2023-04-27T23:08:30.140Z,9.70
2023-04-27T23:10:57.648Z,9.70
2023-04-27T23:13:27.736Z,9.70
2023-04-27T23:15:54.562Z,9.70
2023-04-27T23:18:21.625Z,9.60
2023-04-27T23:20:54.759Z,9.50
2023-04-27T23:23:22.044Z,9.50
2023-04-27T23:25:48.880Z,9.40
2023-04-27T23:28:15.605Z,9.40
2023-04-27T23:30:42.394Z,9.40
2023-04-27T23:33:09.204Z,9.40
2023-04-27T23:35:36.012Z,9.30
2023-04-27T23:38:02.790Z,9.30
2023-04-27T23:40:29.584Z,9.30
2023-04-27T23:42:56.622Z,9.30
2023-04-27T23:45:23.345Z,9.20
2023-04-27T23:47:50.257Z,9.10
2023-04-27T23:50:17.169Z,9.10
2023-04-27T23:52:45.183Z,9.10
2023-04-27T23:55:12.141Z,9.00
2023-04-27T23:57:38.959Z,9.00
